sensor_id;sensor_type;location;lat;lon;timestamp;P1;durP1;ratioP1;P2;durP2;ratioP2
32186;SDS011;18686;53.084;8.872;2024-01-15T00:01:23;29.42;;;4.50;;
32186;SDS011;18686;53.084;8.872;2024-01-15T00:03:53;31.92;;;5.18;;
32186;SDS011;18686;53.084;8.872;2024-01-15T00:06:21;33.13;;;4.85;;
32186;SDS011;18686;53.084;8.872;2024-01-15T00:08:51;30.70;;;5.13;;
32186;SDS011;18686;53.084;8.872;2024-01-15T00:11:19;31.48;;;4.32;;
32186;SDS011;18686;53.084;8.872;2024-01-15T00:13:47;32.72;;;4.13;;
32186;SDS011;18686;53.084;8.872;2024-01-15T00:16:15;28.52;;;4.53;;
32186;SDS011;18686;53.084;8.872;2024-01-15T00:18:45;37.45;;;4.43;;
32186;SDS011;18686;53.084;8.872;2024-01-15T00:21:13;29.70;;;3.78;;
32186;SDS011;18686;53.084;8.872;2024-01-15T00:23:42;37.20;;;4.57;;
32186;SDS011;18686;53.084;8.872;2024-01-15T00:26:11;28.38;;;4.05;;
32186;SDS011;18686;53.084;8.872;2024-01-15T00:28:39;31.65;;;5.30;;
32186;SDS011;18686;53.084;8.872;2024-01-15T00:31:07;28.63;;;4.88;;
32186;SDS011;18686;53.084;8.872;2024-01-15T00:33:36;36.92;;;5.20;;
32186;SDS011;18686;53.084;8.872;2024-01-15T00:36:06;29.90;;;4.00;;
32186;SDS011;18686;53.084;8.872;2024-01-15T00:38:35;34.47;;;4.50;;
32186;SDS011;18686;53.084;8.872;2024-01-15T00:41:03;29.88;;;5.00;;
32186;SDS011;18686;53.084;8.872;2024-01-15T00:43:32;34.45;;;4.15;;
32186;SDS011;18686;53.084;8.872;2024-01-15T00:46:01;39.03;;;4.10;;
32186;SDS011;18686;53.084;8.872;2024-01-15T00:48:30;32.95;;;4.82;;
32186;SDS011;18686;53.084;8.872;2024-01-15T00:50:58;34.53;;;4.78;;
32186;SDS011;18686;53.084;8.872;2024-01-15T00:53:29;26.75;;;3.58;;
32186;SDS011;18686;53.084;8.872;2024-01-15T00:55:58;32.10;;;4.07;;
32186;SDS011;18686;53.084;8.872;2024-01-15T00:58:26;34.45;;;4.20;;
32186;SDS011;18686;53.084;8.872;2024-01-15T01:00:54;39.05;;;4.25;;
32186;SDS011;18686;53.084;8.872;2024-01-15T01:03:23;55.17;;;5.20;;
32186;SDS011;18686;53.084;8.872;2024-01-15T01:05:51;24.58;;;4.00;;
32186;SDS011;18686;53.084;8.872;2024-01-15T01:08:20;26.35;;;3.70;;
32186;SDS011;18686;53.084;8.872;2024-01-15T01:10:49;38.80;;;3.75;;
32186;SDS011;18686;53.084;8.872;2024-01-15T01:13:18;28.05;;;3.25;;
32186;SDS011;18686;53.084;8.872;2024-01-15T01:15:46;25.25;;;3.65;;
32186;SDS011;18686;53.084;8.872;2024-01-15T01:18:14;23.80;;;3.40;;
32186;SDS011;18686;53.084;8.872;2024-01-15T01:20:43;25.08;;;3.83;;
32186;SDS011;18686;53.084;8.872;2024-01-15T01:23:11;28.80;;;3.60;;
32186;SDS011;18686;53.084;8.872;2024-01-15T01:25:39;26.92;;;3.70;;
32186;SDS011;18686;53.084;8.872;2024-01-15T01:28:09;27.05;;;3.45;;
32186;SDS011;18686;53.084;8.872;2024-01-15T01:30:37;26.40;;;4.93;;
32186;SDS011;18686;53.084;8.872;2024-01-15T01:33:07;25.67;;;4.35;;
32186;SDS011;18686;53.084;8.872;2024-01-15T01:35:36;28.73;;;4.43;;
32186;SDS011;18686;53.084;8.872;2024-01-15T01:38:04;32.45;;;5.03;;
32186;SDS011;18686;53.084;8.872;2024-01-15T01:40:32;26.38;;;3.90;;
32186;SDS011;18686;53.084;8.872;2024-01-15T01:43:02;18.63;;;3.80;;
32186;SDS011;18686;53.084;8.872;2024-01-15T01:45:32;24.55;;;3.53;;
32186;SDS011;18686;53.084;8.872;2024-01-15T01:48:00;31.15;;;4.55;;
32186;SDS011;18686;53.084;8.872;2024-01-15T01:50:29;25.52;;;2.97;;
32186;SDS011;18686;53.084;8.872;2024-01-15T01:52:58;22.80;;;3.63;;
32186;SDS011;18686;53.084;8.872;2024-01-15T01:55:27;26.27;;;3.60;;
32186;SDS011;18686;53.084;8.872;2024-01-15T01:58:00;19.73;;;3.42;;
32186;SDS011;18686;53.084;8.872;2024-01-15T02:00:29;21.48;;;3.70;;
32186;SDS011;18686;53.084;8.872;2024-01-15T02:03:01;27.15;;;4.30;;
32186;SDS011;18686;53.084;8.872;2024-01-15T02:05:30;22.25;;;3.45;;
32186;SDS011;18686;53.084;8.872;2024-01-15T02:08:01;27.88;;;4.00;;
32186;SDS011;18686;53.084;8.872;2024-01-15T02:10:29;26.30;;;3.78;;
32186;SDS011;18686;53.084;8.872;2024-01-15T02:12:57;28.30;;;3.67;;
32186;SDS011;18686;53.084;8.872;2024-01-15T02:15:26;20.30;;;4.00;;
32186;SDS011;18686;53.084;8.872;2024-01-15T02:17:59;27.95;;;3.90;;
32186;SDS011;18686;53.084;8.872;2024-01-15T02:20:29;27.13;;;3.95;;
32186;SDS011;18686;53.084;8.872;2024-01-15T02:23:03;17.77;;;3.25;;
32186;SDS011;18686;53.084;8.872;2024-01-15T02:25:35;31.67;;;4.57;;
32186;SDS011;18686;53.084;8.872;2024-01-15T02:28:06;24.85;;;4.20;;
32186;SDS011;18686;53.084;8.872;2024-01-15T02:30:35;38.15;;;5.30;;
32186;SDS011;18686;53.084;8.872;2024-01-15T02:33:06;36.15;;;4.93;;
32186;SDS011;18686;53.084;8.872;2024-01-15T02:35:35;32.25;;;4.80;;
32186;SDS011;18686;53.084;8.872;2024-01-15T02:38:05;29.55;;;4.07;;
32186;SDS011;18686;53.084;8.872;2024-01-15T02:40:34;33.53;;;5.38;;
32186;SDS011;18686;53.084;8.872;2024-01-15T02:43:02;28.85;;;4.78;;
32186;SDS011;18686;53.084;8.872;2024-01-15T02:45:31;33.70;;;4.57;;
32186;SDS011;18686;53.084;8.872;2024-01-15T02:47:59;29.92;;;5.00;;
32186;SDS011;18686;53.084;8.872;2024-01-15T02:50:28;29.02;;;3.83;;
32186;SDS011;18686;53.084;8.872;2024-01-15T02:52:56;34.35;;;4.53;;
32186;SDS011;18686;53.084;8.872;2024-01-15T02:55:25;34.63;;;4.97;;
32186;SDS011;18686;53.084;8.872;2024-01-15T02:57:56;29.55;;;4.57;;
32186;SDS011;18686;53.084;8.872;2024-01-15T03:00:24;42.28;;;5.07;;
32186;SDS011;18686;53.084;8.872;2024-01-15T03:02:52;28.17;;;4.13;;
32186;SDS011;18686;53.084;8.872;2024-01-15T03:05:21;29.90;;;3.65;;
32186;SDS011;18686;53.084;8.872;2024-01-15T03:07:49;32.53;;;3.88;;
32186;SDS011;18686;53.084;8.872;2024-01-15T03:10:17;34.38;;;6.03;;
32186;SDS011;18686;53.084;8.872;2024-01-15T03:12:47;33.78;;;4.30;;
32186;SDS011;18686;53.084;8.872;2024-01-15T03:15:15;25.88;;;4.10;;
32186;SDS011;18686;53.084;8.872;2024-01-15T03:17:45;28.70;;;3.90;;
32186;SDS011;18686;53.084;8.872;2024-01-15T03:20:13;27.83;;;3.35;;
32186;SDS011;18686;53.084;8.872;2024-01-15T03:22:41;32.22;;;3.42;;
32186;SDS011;18686;53.084;8.872;2024-01-15T03:25:10;27.83;;;3.50;;
32186;SDS011;18686;53.084;8.872;2024-01-15T03:27:38;28.55;;;3.63;;
32186;SDS011;18686;53.084;8.872;2024-01-15T03:30:08;27.80;;;3.50;;
32186;SDS011;18686;53.084;8.872;2024-01-15T03:32:37;23.02;;;4.78;;
32186;SDS011;18686;53.084;8.872;2024-01-15T03:35:07;26.13;;;4.72;;
32186;SDS011;18686;53.084;8.872;2024-01-15T03:37:35;21.05;;;4.53;;
32186;SDS011;18686;53.084;8.872;2024-01-15T03:40:04;22.60;;;3.35;;
32186;SDS011;18686;53.084;8.872;2024-01-15T03:42:33;29.33;;;4.05;;
32186;SDS011;18686;53.084;8.872;2024-01-15T03:45:01;21.25;;;3.80;;
32186;SDS011;18686;53.084;8.872;2024-01-15T03:47:31;40.25;;;3.75;;
32186;SDS011;18686;53.084;8.872;2024-01-15T03:49:59;21.00;;;4.47;;
32186;SDS011;18686;53.084;8.872;2024-01-15T03:52:27;28.77;;;3.92;;
32186;SDS011;18686;53.084;8.872;2024-01-15T03:54:56;20.83;;;3.90;;
32186;SDS011;18686;53.084;8.872;2024-01-15T03:57:24;31.58;;;3.38;;
32186;SDS011;18686;53.084;8.872;2024-01-15T03:59:54;36.88;;;4.00;;
32186;SDS011;18686;53.084;8.872;2024-01-15T04:02:22;33.38;;;3.72;;
32186;SDS011;18686;53.084;8.872;2024-01-15T04:04:51;27.15;;;3.67;;
32186;SDS011;18686;53.084;8.872;2024-01-15T04:07:20;23.92;;;4.07;;
32186;SDS011;18686;53.084;8.872;2024-01-15T04:09:48;27.05;;;4.07;;
32186;SDS011;18686;53.084;8.872;2024-01-15T04:12:16;31.52;;;3.55;;
32186;SDS011;18686;53.084;8.872;2024-01-15T04:14:45;29.60;;;3.58;;
32186;SDS011;18686;53.084;8.872;2024-01-15T04:17:13;33.95;;;4.68;;
32186;SDS011;18686;53.084;8.872;2024-01-15T04:19:43;34.40;;;4.43;;
32186;SDS011;18686;53.084;8.872;2024-01-15T04:22:13;33.63;;;4.28;;
32186;SDS011;18686;53.084;8.872;2024-01-15T04:24:41;38.35;;;4.25;;
32186;SDS011;18686;53.084;8.872;2024-01-15T04:27:10;41.30;;;4.88;;
32186;SDS011;18686;53.084;8.872;2024-01-15T04:29:38;27.65;;;4.05;;
32186;SDS011;18686;53.084;8.872;2024-01-15T04:32:07;34.88;;;4.40;;
32186;SDS011;18686;53.084;8.872;2024-01-15T04:34:35;30.25;;;3.40;;
32186;SDS011;18686;53.084;8.872;2024-01-15T04:37:04;32.95;;;3.25;;
32186;SDS011;18686;53.084;8.872;2024-01-15T04:39:34;23.50;;;3.28;;
32186;SDS011;18686;53.084;8.872;2024-01-15T04:42:02;41.75;;;3.67;;
32186;SDS011;18686;53.084;8.872;2024-01-15T04:44:31;38.05;;;3.97;;
32186;SDS011;18686;53.084;8.872;2024-01-15T04:46:59;24.85;;;3.55;;
32186;SDS011;18686;53.084;8.872;2024-01-15T04:49:29;21.27;;;2.65;;
32186;SDS011;18686;53.084;8.872;2024-01-15T04:51:58;32.10;;;3.85;;
32186;SDS011;18686;53.084;8.872;2024-01-15T04:54:27;38.88;;;4.22;;
32186;SDS011;18686;53.084;8.872;2024-01-15T04:56:56;29.25;;;3.50;;
32186;SDS011;18686;53.084;8.872;2024-01-15T04:59:25;30.23;;;3.10;;
32186;SDS011;18686;53.084;8.872;2024-01-15T05:01:53;29.67;;;3.63;;
32186;SDS011;18686;53.084;8.872;2024-01-15T05:04:23;32.95;;;3.72;;
32186;SDS011;18686;53.084;8.872;2024-01-15T05:06:53;41.60;;;4.03;;
32186;SDS011;18686;53.084;8.872;2024-01-15T05:09:22;31.75;;;3.15;;
32186;SDS011;18686;53.084;8.872;2024-01-15T05:11:50;34.45;;;4.20;;
32186;SDS011;18686;53.084;8.872;2024-01-15T05:14:20;34.40;;;4.32;;
32186;SDS011;18686;53.084;8.872;2024-01-15T05:16:48;25.83;;;3.72;;
32186;SDS011;18686;53.084;8.872;2024-01-15T05:19:17;28.00;;;2.88;;
32186;SDS011;18686;53.084;8.872;2024-01-15T05:21:46;29.50;;;3.00;;
32186;SDS011;18686;53.084;8.872;2024-01-15T05:24:14;26.70;;;4.03;;
32186;SDS011;18686;53.084;8.872;2024-01-15T05:26:42;26.92;;;3.40;;
32186;SDS011;18686;53.084;8.872;2024-01-15T05:29:12;27.63;;;3.92;;
32186;SDS011;18686;53.084;8.872;2024-01-15T05:31:42;32.90;;;4.32;;
32186;SDS011;18686;53.084;8.872;2024-01-15T05:34:10;29.58;;;4.00;;
32186;SDS011;18686;53.084;8.872;2024-01-15T05:36:39;28.70;;;4.95;;
32186;SDS011;18686;53.084;8.872;2024-01-15T05:39:07;37.53;;;5.10;;
32186;SDS011;18686;53.084;8.872;2024-01-15T05:41:35;34.20;;;4.55;;
32186;SDS011;18686;53.084;8.872;2024-01-15T05:44:04;36.78;;;4.68;;
32186;SDS011;18686;53.084;8.872;2024-01-15T05:46:32;26.33;;;3.92;;
32186;SDS011;18686;53.084;8.872;2024-01-15T05:49:01;31.33;;;4.30;;
32186;SDS011;18686;53.084;8.872;2024-01-15T05:51:30;25.08;;;3.92;;
32186;SDS011;18686;53.084;8.872;2024-01-15T05:53:59;39.53;;;4.60;;
32186;SDS011;18686;53.084;8.872;2024-01-15T05:56:27;25.15;;;3.75;;
32186;SDS011;18686;53.084;8.872;2024-01-15T05:58:57;32.60;;;4.78;;
32186;SDS011;18686;53.084;8.872;2024-01-15T06:01:25;39.40;;;5.68;;
32186;SDS011;18686;53.084;8.872;2024-01-15T06:03:53;41.90;;;4.60;;
32186;SDS011;18686;53.084;8.872;2024-01-15T06:06:23;31.23;;;4.75;;
32186;SDS011;18686;53.084;8.872;2024-01-15T06:08:51;25.50;;;2.78;;
32186;SDS011;18686;53.084;8.872;2024-01-15T06:11:19;25.00;;;3.35;;
32186;SDS011;18686;53.084;8.872;2024-01-15T06:13:48;31.38;;;3.22;;
32186;SDS011;18686;53.084;8.872;2024-01-15T06:16:16;40.15;;;4.93;;
32186;SDS011;18686;53.084;8.872;2024-01-15T06:18:46;34.20;;;4.00;;
32186;SDS011;18686;53.084;8.872;2024-01-15T06:21:15;26.35;;;3.30;;
32186;SDS011;18686;53.084;8.872;2024-01-15T06:23:46;44.55;;;5.03;;
32186;SDS011;18686;53.084;8.872;2024-01-15T06:26:14;37.38;;;4.53;;
32186;SDS011;18686;53.084;8.872;2024-01-15T06:28:44;38.30;;;4.53;;
32186;SDS011;18686;53.084;8.872;2024-01-15T06:31:12;35.53;;;6.05;;
32186;SDS011;18686;53.084;8.872;2024-01-15T06:33:40;32.40;;;5.20;;
32186;SDS011;18686;53.084;8.872;2024-01-15T06:36:09;26.88;;;5.25;;
32186;SDS011;18686;53.084;8.872;2024-01-15T06:38:37;39.08;;;5.38;;
32186;SDS011;18686;53.084;8.872;2024-01-15T06:41:07;32.40;;;4.35;;
32186;SDS011;18686;53.084;8.872;2024-01-15T06:43:35;25.98;;;4.55;;
32186;SDS011;18686;53.084;8.872;2024-01-15T06:46:03;31.98;;;4.57;;
32186;SDS011;18686;53.084;8.872;2024-01-15T06:48:34;23.80;;;4.50;;
32186;SDS011;18686;53.084;8.872;2024-01-15T06:51:02;39.40;;;5.25;;
32186;SDS011;18686;53.084;8.872;2024-01-15T06:53:31;26.25;;;4.47;;
32186;SDS011;18686;53.084;8.872;2024-01-15T06:55:59;24.40;;;4.30;;
32186;SDS011;18686;53.084;8.872;2024-01-15T06:58:30;22.13;;;4.18;;
32186;SDS011;18686;53.084;8.872;2024-01-15T07:01:00;27.00;;;3.28;;
32186;SDS011;18686;53.084;8.872;2024-01-15T07:03:29;15.95;;;3.45;;
32186;SDS011;18686;53.084;8.872;2024-01-15T07:05:57;30.67;;;4.07;;
32186;SDS011;18686;53.084;8.872;2024-01-15T07:08:26;26.88;;;3.58;;
32186;SDS011;18686;53.084;8.872;2024-01-15T07:10:54;27.80;;;3.97;;
32186;SDS011;18686;53.084;8.872;2024-01-15T07:13:23;23.15;;;3.40;;
32186;SDS011;18686;53.084;8.872;2024-01-15T07:15:52;18.90;;;2.85;;
32186;SDS011;18686;53.084;8.872;2024-01-15T07:18:21;16.20;;;2.80;;
32186;SDS011;18686;53.084;8.872;2024-01-15T07:20:50;25.88;;;3.58;;
32186;SDS011;18686;53.084;8.872;2024-01-15T07:23:18;19.60;;;4.22;;
32186;SDS011;18686;53.084;8.872;2024-01-15T07:25:46;24.70;;;4.20;;
32186;SDS011;18686;53.084;8.872;2024-01-15T07:28:14;12.00;;;3.72;;
32186;SDS011;18686;53.084;8.872;2024-01-15T07:30:43;15.10;;;3.67;;
32186;SDS011;18686;53.084;8.872;2024-01-15T07:33:13;14.40;;;3.60;;
32186;SDS011;18686;53.084;8.872;2024-01-15T07:35:42;17.23;;;4.30;;
32186;SDS011;18686;53.084;8.872;2024-01-15T07:38:10;20.73;;;5.10;;
32186;SDS011;18686;53.084;8.872;2024-01-15T07:40:38;19.70;;;5.00;;
32186;SDS011;18686;53.084;8.872;2024-01-15T07:43:08;23.75;;;5.38;;
32186;SDS011;18686;53.084;8.872;2024-01-15T07:45:36;27.95;;;6.78;;
32186;SDS011;18686;53.084;8.872;2024-01-15T07:48:07;25.48;;;6.57;;
32186;SDS011;18686;53.084;8.872;2024-01-15T07:50:37;26.33;;;6.72;;
32186;SDS011;18686;53.084;8.872;2024-01-15T07:53:05;39.53;;;11.45;;
32186;SDS011;18686;53.084;8.872;2024-01-15T07:55:34;34.53;;;6.13;;
32186;SDS011;18686;53.084;8.872;2024-01-15T07:58:03;28.77;;;5.63;;
32186;SDS011;18686;53.084;8.872;2024-01-15T08:00:41;26.75;;;5.70;;
32186;SDS011;18686;53.084;8.872;2024-01-15T08:03:10;37.03;;;6.72;;
32186;SDS011;18686;53.084;8.872;2024-01-15T08:05:40;32.55;;;6.25;;
32186;SDS011;18686;53.084;8.872;2024-01-15T08:08:09;22.40;;;5.05;;
32186;SDS011;18686;53.084;8.872;2024-01-15T08:10:37;28.83;;;4.80;;
32186;SDS011;18686;53.084;8.872;2024-01-15T08:13:06;24.23;;;4.97;;
32186;SDS011;18686;53.084;8.872;2024-01-15T08:15:35;28.30;;;3.92;;
32186;SDS011;18686;53.084;8.872;2024-01-15T08:18:04;25.33;;;3.85;;
32186;SDS011;18686;53.084;8.872;2024-01-15T08:20:33;28.73;;;3.35;;
32186;SDS011;18686;53.084;8.872;2024-01-15T08:23:02;14.88;;;3.03;;
32186;SDS011;18686;53.084;8.872;2024-01-15T08:25:31;20.55;;;2.92;;
32186;SDS011;18686;53.084;8.872;2024-01-15T08:27:59;27.73;;;4.97;;
32186;SDS011;18686;53.084;8.872;2024-01-15T08:30:27;16.95;;;3.65;;
32186;SDS011;18686;53.084;8.872;2024-01-15T08:32:56;16.92;;;2.35;;
32186;SDS011;18686;53.084;8.872;2024-01-15T08:35:36;22.20;;;2.72;;
32186;SDS011;18686;53.084;8.872;2024-01-15T08:38:06;23.80;;;2.70;;
32186;SDS011;18686;53.084;8.872;2024-01-15T08:40:34;22.90;;;3.50;;
32186;SDS011;18686;53.084;8.872;2024-01-15T08:43:02;27.42;;;4.10;;
32186;SDS011;18686;53.084;8.872;2024-01-15T08:45:33;26.60;;;3.38;;
32186;SDS011;18686;53.084;8.872;2024-01-15T08:48:01;23.02;;;3.70;;
32186;SDS011;18686;53.084;8.872;2024-01-15T08:50:30;24.35;;;3.05;;
32186;SDS011;18686;53.084;8.872;2024-01-15T08:53:00;30.15;;;3.95;;
32186;SDS011;18686;53.084;8.872;2024-01-15T08:55:29;26.40;;;3.45;;
32186;SDS011;18686;53.084;8.872;2024-01-15T08:57:57;26.85;;;3.75;;
32186;SDS011;18686;53.084;8.872;2024-01-15T09:00:26;30.85;;;3.85;;
32186;SDS011;18686;53.084;8.872;2024-01-15T09:02:54;27.75;;;3.60;;
32186;SDS011;18686;53.084;8.872;2024-01-15T09:05:23;26.13;;;3.00;;
32186;SDS011;18686;53.084;8.872;2024-01-15T09:07:52;19.27;;;3.28;;
32186;SDS011;18686;53.084;8.872;2024-01-15T09:10:20;31.52;;;4.30;;
32186;SDS011;18686;53.084;8.872;2024-01-15T09:12:51;28.90;;;4.05;;
32186;SDS011;18686;53.084;8.872;2024-01-15T09:15:20;24.90;;;4.10;;
32186;SDS011;18686;53.084;8.872;2024-01-15T09:17:48;32.60;;;4.22;;
32186;SDS011;18686;53.084;8.872;2024-01-15T09:20:16;22.02;;;3.65;;
32186;SDS011;18686;53.084;8.872;2024-01-15T09:22:45;21.02;;;2.85;;
32186;SDS011;18686;53.084;8.872;2024-01-15T09:25:13;23.58;;;3.58;;
32186;SDS011;18686;53.084;8.872;2024-01-15T09:27:42;30.45;;;4.22;;
32186;SDS011;18686;53.084;8.872;2024-01-15T09:30:12;31.85;;;4.25;;
32186;SDS011;18686;53.084;8.872;2024-01-15T09:32:42;24.67;;;4.07;;
32186;SDS011;18686;53.084;8.872;2024-01-15T09:35:10;25.67;;;4.43;;
32186;SDS011;18686;53.084;8.872;2024-01-15T09:37:39;23.15;;;4.07;;
32186;SDS011;18686;53.084;8.872;2024-01-15T09:40:13;29.10;;;4.53;;
32186;SDS011;18686;53.084;8.872;2024-01-15T09:42:43;19.98;;;3.70;;
32186;SDS011;18686;53.084;8.872;2024-01-15T09:45:14;27.42;;;5.00;;
32186;SDS011;18686;53.084;8.872;2024-01-15T09:47:42;18.83;;;3.20;;
32186;SDS011;18686;53.084;8.872;2024-01-15T09:50:12;23.50;;;3.75;;
32186;SDS011;18686;53.084;8.872;2024-01-15T09:52:43;20.50;;;3.83;;
32186;SDS011;18686;53.084;8.872;2024-01-15T09:55:13;25.52;;;3.30;;
32186;SDS011;18686;53.084;8.872;2024-01-15T09:57:42;20.55;;;3.33;;
32186;SDS011;18686;53.084;8.872;2024-01-15T10:00:14;17.85;;;3.58;;
32186;SDS011;18686;53.084;8.872;2024-01-15T10:02:45;20.88;;;3.65;;
32186;SDS011;18686;53.084;8.872;2024-01-15T10:05:13;18.75;;;3.33;;
32186;SDS011;18686;53.084;8.872;2024-01-15T10:07:42;21.60;;;3.10;;
32186;SDS011;18686;53.084;8.872;2024-01-15T10:10:12;27.20;;;3.55;;
32186;SDS011;18686;53.084;8.872;2024-01-15T10:12:40;14.43;;;2.60;;
32186;SDS011;18686;53.084;8.872;2024-01-15T10:15:10;17.20;;;2.95;;
32186;SDS011;18686;53.084;8.872;2024-01-15T10:17:40;18.35;;;3.38;;
32186;SDS011;18686;53.084;8.872;2024-01-15T10:20:09;27.80;;;3.65;;
32186;SDS011;18686;53.084;8.872;2024-01-15T10:22:40;22.58;;;3.47;;
32186;SDS011;18686;53.084;8.872;2024-01-15T10:25:10;15.77;;;2.70;;
32186;SDS011;18686;53.084;8.872;2024-01-15T10:27:39;24.35;;;3.38;;
32186;SDS011;18686;53.084;8.872;2024-01-15T10:30:09;19.88;;;3.38;;
32186;SDS011;18686;53.084;8.872;2024-01-15T10:32:38;24.77;;;3.70;;
32186;SDS011;18686;53.084;8.872;2024-01-15T10:35:10;26.67;;;4.32;;
32186;SDS011;18686;53.084;8.872;2024-01-15T10:37:41;28.40;;;4.50;;
32186;SDS011;18686;53.084;8.872;2024-01-15T10:40:09;32.85;;;4.60;;
32186;SDS011;18686;53.084;8.872;2024-01-15T10:42:40;19.42;;;4.13;;
32186;SDS011;18686;53.084;8.872;2024-01-15T10:45:08;23.40;;;4.68;;
32186;SDS011;18686;53.084;8.872;2024-01-15T10:47:37;20.40;;;4.70;;
32186;SDS011;18686;53.084;8.872;2024-01-15T10:50:06;23.13;;;4.65;;
32186;SDS011;18686;53.084;8.872;2024-01-15T10:52:37;15.98;;;3.53;;
32186;SDS011;18686;53.084;8.872;2024-01-15T10:55:08;20.42;;;4.43;;
32186;SDS011;18686;53.084;8.872;2024-01-15T10:57:44;23.10;;;3.85;;
32186;SDS011;18686;53.084;8.872;2024-01-15T11:00:16;20.10;;;3.38;;
32186;SDS011;18686;53.084;8.872;2024-01-15T11:02:45;16.00;;;3.40;;
32186;SDS011;18686;53.084;8.872;2024-01-15T11:05:14;17.75;;;3.13;;
32186;SDS011;18686;53.084;8.872;2024-01-15T11:07:46;20.58;;;3.85;;
32186;SDS011;18686;53.084;8.872;2024-01-15T11:13:09;17.92;;;3.42;;
32186;SDS011;18686;53.084;8.872;2024-01-15T11:15:59;23.00;;;3.30;;
32186;SDS011;18686;53.084;8.872;2024-01-15T11:18:35;16.77;;;3.15;;
32186;SDS011;18686;53.084;8.872;2024-01-15T11:21:20;25.52;;;3.83;;
32186;SDS011;18686;53.084;8.872;2024-01-15T11:23:51;16.23;;;3.55;;
32186;SDS011;18686;53.084;8.872;2024-01-15T11:26:27;18.92;;;3.10;;
32186;SDS011;18686;53.084;8.872;2024-01-15T11:28:59;9.80;;;2.08;;
32186;SDS011;18686;53.084;8.872;2024-01-15T11:31:30;14.80;;;2.60;;
32186;SDS011;18686;53.084;8.872;2024-01-15T11:37:29;13.98;;;2.83;;
32186;SDS011;18686;53.084;8.872;2024-01-15T11:40:36;11.13;;;2.55;;
32186;SDS011;18686;53.084;8.872;2024-01-15T11:43:06;11.00;;;1.85;;
32186;SDS011;18686;53.084;8.872;2024-01-15T11:45:36;6.75;;;1.23;;
32186;SDS011;18686;53.084;8.872;2024-01-15T11:50:45;10.43;;;1.80;;
32186;SDS011;18686;53.084;8.872;2024-01-15T11:53:16;10.80;;;2.03;;
32186;SDS011;18686;53.084;8.872;2024-01-15T11:55:50;14.05;;;1.33;;
32186;SDS011;18686;53.084;8.872;2024-01-15T11:58:19;8.10;;;1.35;;
32186;SDS011;18686;53.084;8.872;2024-01-15T12:00:48;9.55;;;1.60;;
32186;SDS011;18686;53.084;8.872;2024-01-15T12:03:20;7.95;;;1.55;;
32186;SDS011;18686;53.084;8.872;2024-01-15T12:05:48;5.82;;;1.25;;
32186;SDS011;18686;53.084;8.872;2024-01-15T12:08:20;12.70;;;1.58;;
32186;SDS011;18686;53.084;8.872;2024-01-15T12:10:50;7.60;;;1.58;;
32186;SDS011;18686;53.084;8.872;2024-01-15T12:13:19;9.13;;;1.17;;
32186;SDS011;18686;53.084;8.872;2024-01-15T12:15:48;14.95;;;1.48;;
32186;SDS011;18686;53.084;8.872;2024-01-15T12:18:17;14.00;;;2.08;;
32186;SDS011;18686;53.084;8.872;2024-01-15T12:20:47;11.38;;;1.63;;
32186;SDS011;18686;53.084;8.872;2024-01-15T12:23:16;17.77;;;2.63;;
32186;SDS011;18686;53.084;8.872;2024-01-15T12:25:45;10.40;;;1.52;;
32186;SDS011;18686;53.084;8.872;2024-01-15T12:28:15;6.50;;;1.65;;
32186;SDS011;18686;53.084;8.872;2024-01-15T12:30:46;9.93;;;1.60;;
32186;SDS011;18686;53.084;8.872;2024-01-15T12:33:17;6.60;;;1.33;;
32186;SDS011;18686;53.084;8.872;2024-01-15T12:35:47;5.80;;;0.93;;
32186;SDS011;18686;53.084;8.872;2024-01-15T12:38:18;4.00;;;1.00;;
32186;SDS011;18686;53.084;8.872;2024-01-15T12:40:47;5.40;;;0.77;;
32186;SDS011;18686;53.084;8.872;2024-01-15T12:43:20;7.00;;;1.02;;
32186;SDS011;18686;53.084;8.872;2024-01-15T12:45:49;7.00;;;0.90;;
32186;SDS011;18686;53.084;8.872;2024-01-15T12:48:20;7.22;;;1.02;;
32186;SDS011;18686;53.084;8.872;2024-01-15T12:50:48;8.20;;;1.73;;
32186;SDS011;18686;53.084;8.872;2024-01-15T12:53:16;10.18;;;1.48;;
32186;SDS011;18686;53.084;8.872;2024-01-15T12:55:44;6.93;;;1.85;;
32186;SDS011;18686;53.084;8.872;2024-01-15T12:58:13;6.03;;;1.30;;
32186;SDS011;18686;53.084;8.872;2024-01-15T13:00:46;6.68;;;1.38;;
32186;SDS011;18686;53.084;8.872;2024-01-15T13:03:14;6.68;;;1.23;;
32186;SDS011;18686;53.084;8.872;2024-01-15T13:05:43;8.95;;;2.10;;
32186;SDS011;18686;53.084;8.872;2024-01-15T13:08:11;5.85;;;1.23;;
32186;SDS011;18686;53.084;8.872;2024-01-15T13:10:40;4.90;;;1.17;;
32186;SDS011;18686;53.084;8.872;2024-01-15T13:13:08;9.48;;;1.85;;
32186;SDS011;18686;53.084;8.872;2024-01-15T13:15:37;8.18;;;1.45;;
32186;SDS011;18686;53.084;8.872;2024-01-15T13:18:07;11.30;;;1.42;;
32186;SDS011;18686;53.084;8.872;2024-01-15T13:20:36;7.55;;;1.50;;
32186;SDS011;18686;53.084;8.872;2024-01-15T13:23:05;5.60;;;1.15;;
32186;SDS011;18686;53.084;8.872;2024-01-15T13:25:33;7.82;;;1.20;;
32186;SDS011;18686;53.084;8.872;2024-01-15T13:28:04;6.65;;;1.80;;
32186;SDS011;18686;53.084;8.872;2024-01-15T13:30:34;14.65;;;1.55;;
32186;SDS011;18686;53.084;8.872;2024-01-15T13:33:03;11.02;;;1.40;;
32186;SDS011;18686;53.084;8.872;2024-01-15T13:35:33;4.07;;;1.13;;
32186;SDS011;18686;53.084;8.872;2024-01-15T13:38:02;11.60;;;1.48;;
32186;SDS011;18686;53.084;8.872;2024-01-15T13:40:32;9.25;;;1.95;;
32186;SDS011;18686;53.084;8.872;2024-01-15T13:43:00;7.63;;;1.52;;
32186;SDS011;18686;53.084;8.872;2024-01-15T13:45:29;9.23;;;1.45;;
32186;SDS011;18686;53.084;8.872;2024-01-15T13:47:57;9.32;;;1.77;;
32186;SDS011;18686;53.084;8.872;2024-01-15T13:50:25;10.75;;;1.67;;
32186;SDS011;18686;53.084;8.872;2024-01-15T13:52:55;9.23;;;1.73;;
32186;SDS011;18686;53.084;8.872;2024-01-15T13:55:24;11.70;;;1.90;;
32186;SDS011;18686;53.084;8.872;2024-01-15T13:57:52;9.98;;;2.42;;
32186;SDS011;18686;53.084;8.872;2024-01-15T14:00:21;6.57;;;2.25;;
32186;SDS011;18686;53.084;8.872;2024-01-15T14:02:50;10.32;;;1.95;;
32186;SDS011;18686;53.084;8.872;2024-01-15T14:05:18;6.38;;;1.65;;
32186;SDS011;18686;53.084;8.872;2024-01-15T14:07:46;7.90;;;1.65;;
32186;SDS011;18686;53.084;8.872;2024-01-15T14:10:16;5.45;;;1.98;;
32186;SDS011;18686;53.084;8.872;2024-01-15T14:12:44;6.82;;;2.15;;
32186;SDS011;18686;53.084;8.872;2024-01-15T14:15:12;6.15;;;1.60;;
32186;SDS011;18686;53.084;8.872;2024-01-15T14:17:41;11.90;;;2.75;;
32186;SDS011;18686;53.084;8.872;2024-01-15T14:20:09;6.53;;;2.22;;
32186;SDS011;18686;53.084;8.872;2024-01-15T14:22:39;4.60;;;1.95;;
32186;SDS011;18686;53.084;8.872;2024-01-15T14:25:08;4.32;;;1.80;;
32186;SDS011;18686;53.084;8.872;2024-01-15T14:27:37;4.18;;;2.13;;
32186;SDS011;18686;53.084;8.872;2024-01-15T14:30:06;5.43;;;2.45;;
32186;SDS011;18686;53.084;8.872;2024-01-15T14:32:36;9.52;;;5.00;;
32186;SDS011;18686;53.084;8.872;2024-01-15T14:35:04;14.05;;;8.00;;
32186;SDS011;18686;53.084;8.872;2024-01-15T14:37:34;9.07;;;2.60;;
32186;SDS011;18686;53.084;8.872;2024-01-15T14:40:03;8.18;;;2.38;;
32186;SDS011;18686;53.084;8.872;2024-01-15T14:42:35;8.48;;;2.50;;
32186;SDS011;18686;53.084;8.872;2024-01-15T14:45:06;11.23;;;2.50;;
32186;SDS011;18686;53.084;8.872;2024-01-15T14:47:39;6.47;;;2.20;;
32186;SDS011;18686;53.084;8.872;2024-01-15T14:50:08;8.98;;;2.90;;
32186;SDS011;18686;53.084;8.872;2024-01-15T14:52:39;10.20;;;3.33;;
32186;SDS011;18686;53.084;8.872;2024-01-15T14:55:08;12.05;;;3.88;;
32186;SDS011;18686;53.084;8.872;2024-01-15T14:57:37;10.05;;;3.28;;